Time;durP1;ratioP1;P1;durP2;ratioP2;P2;SDS_P1;SDS_P2;PMS_P1;PMS_P2;Temp;Humidity;BMP_temperature;BMP_pressure;BME280_temperature;BME280_humidity;BME280_pressure;Samples;Min_cycle;Max_cycle;Signal;HPM_P1;HPM_P2
2021/12/08 00:01:19;;;;;;;12.20;4.50;;;3.70;99.90;;;;;;5054056;28;20036;-74
2021/12/08 00:03:47;;;;;;;8.75;4.30;;;3.70;99.90;;;;;;5041611;28;20049;-73
2021/12/08 00:06:13;;;;;;;11.80;4.82;;;3.60;99.90;;;;;;5092808;28;20079;-74
2021/12/08 00:08:46;;;;;;;10.48;4.30;;;3.70;99.90;;;;;;5082130;28;20063;-74
2021/12/08 00:13:57;;;;;;;9.68;4.22;;;3.60;99.90;;;;;;5088795;28;20051;-74
2021/12/08 00:16:23;;;;;;;11.93;5.13;;;3.60;99.90;;;;;;5090374;28;20043;-74
2021/12/08 00:18:49;;;;;;;9.68;4.60;;;3.60;99.90;;;;;;5082335;28;20477;-74
2021/12/08 00:21:16;;;;;;;14.68;4.82;;;3.50;99.90;;;;;;5089137;28;20074;-74
2021/12/08 00:23:42;;;;;;;15.38;5.40;;;3.60;99.90;;;;;;5084285;28;20036;-74
2021/12/08 00:26:08;;;;;;;10.02;4.80;;;3.50;99.90;;;;;;5086540;28;20047;-73
2021/12/08 00:28:34;;;;;;;12.80;4.55;;;3.60;99.90;;;;;;5085098;28;20044;-73
2021/12/08 00:31:03;;;;;;;13.38;4.70;;;3.50;99.90;;;;;;5092730;28;20089;-73
2021/12/08 00:33:30;;;;;;;11.90;4.93;;;3.50;99.90;;;;;;5094316;28;20051;-73
2021/12/08 00:35:59;;;;;;;11.57;5.45;;;3.50;99.90;;;;;;5071157;28;20048;-73
2021/12/08 00:38:26;;;;;;;9.45;4.55;;;3.50;99.90;;;;;;5064245;28;20075;-73
2021/12/08 00:40:52;;;;;;;16.42;5.10;;;3.50;99.90;;;;;;5088960;28;20036;-73
2021/12/08 00:43:19;;;;;;;12.05;4.65;;;3.60;99.90;;;;;;5092661;28;20085;-74
2021/12/08 00:45:46;;;;;;;8.77;4.75;;;3.50;99.90;;;;;;5094327;28;20040;-74
2021/12/08 00:48:12;;;;;;;13.18;5.20;;;3.50;99.90;;;;;;5092631;28;20032;-74
2021/12/08 00:50:39;;;;;;;10.90;5.15;;;3.50;99.90;;;;;;5087614;28;20092;-74
2021/12/08 00:53:06;;;;;;;13.13;5.20;;;3.60;99.90;;;;;;5090904;28;20040;-74
2021/12/08 00:55:32;;;;;;;15.57;5.32;;;3.60;99.90;;;;;;5088888;28;20048;-74
2021/12/08 00:57:58;;;;;;;12.10;5.45;;;3.60;99.90;;;;;;5080385;28;20040;-74
2021/12/08 01:00:29;;;;;;;10.90;5.00;;;3.60;99.90;;;;;;5094270;28;20072;-73
2021/12/08 01:02:56;;;;;;;11.45;5.15;;;3.60;99.90;;;;;;5091905;28;20130;-74
2021/12/08 01:05:27;;;;;;;11.85;5.20;;;3.70;99.90;;;;;;5091326;28;20493;-74
2021/12/08 01:07:52;;;;;;;9.43;5.22;;;3.70;99.90;;;;;;5082503;28;20044;-74
2021/12/08 01:10:22;;;;;;;13.88;5.00;;;3.70;99.90;;;;;;5067148;28;20090;-74
2021/12/08 01:12:49;;;;;;;12.52;4.90;;;3.70;99.90;;;;;;5089845;28;20072;-74
2021/12/08 01:15:15;;;;;;;15.20;5.43;;;3.70;99.90;;;;;;5086213;28;20040;-73
2021/12/08 01:17:41;;;;;;;13.55;5.15;;;3.70;99.90;;;;;;5076007;28;20395;-74
2021/12/08 01:20:11;;;;;;;11.63;5.45;;;3.80;99.90;;;;;;5092376;28;20036;-74
2021/12/08 01:22:37;;;;;;;12.85;5.70;;;3.80;99.90;;;;;;5065740;28;20040;-74
2021/12/08 01:25:04;;;;;;;10.60;4.72;;;3.80;99.90;;;;;;5086306;28;20047;-74
2021/12/08 01:27:32;;;;;;;8.65;4.60;;;3.90;99.90;;;;;;5064104;28;20039;-74
2021/12/08 01:29:58;;;;;;;10.80;4.40;;;3.90;99.90;;;;;;5077039;28;20190;-74
2021/12/08 01:32:24;;;;;;;8.48;5.53;;;3.90;99.90;;;;;;5085082;28;20049;-74
2021/12/08 01:34:52;;;;;;;11.77;4.60;;;3.90;99.90;;;;;;5061198;28;20048;-74
2021/12/08 01:37:18;;;;;;;9.95;5.18;;;4.00;99.90;;;;;;5079055;28;20093;-74
2021/12/08 01:39:44;;;;;;;9.35;4.72;;;4.00;99.90;;;;;;5094245;28;20135;-74
2021/12/08 01:42:16;;;;;;;9.95;4.32;;;4.00;99.90;;;;;;5093233;28;20071;-74
2021/12/08 01:47:28;;;;;;;8.77;4.28;;;4.00;99.90;;;;;;5080190;28;20047;-74
2021/12/08 01:49:54;;;;;;;8.40;4.45;;;4.10;99.90;;;;;;5085222;28;20051;-74
2021/12/08 01:52:20;;;;;;;8.10;4.13;;;4.10;99.90;;;;;;5095410;28;20036;-74
2021/12/08 01:54:46;;;;;;;11.15;4.85;;;4.10;99.90;;;;;;5093695;28;20028;-74
2021/12/08 01:57:13;;;;;;;7.55;4.20;;;4.10;99.90;;;;;;5076210;28;20051;-74
2021/12/08 01:59:39;;;;;;;10.02;4.97;;;4.10;99.90;;;;;;5092362;28;20037;-74
2021/12/08 02:02:05;;;;;;;12.95;4.90;;;4.10;99.90;;;;;;5089692;28;20077;-74
2021/12/08 02:04:31;;;;;;;8.25;5.65;;;4.10;99.90;;;;;;5080509;28;20037;-74
2021/12/08 02:06:58;;;;;;;8.90;4.57;;;4.10;99.90;;;;;;5083490;28;20047;-74
2021/12/08 02:09:24;;;;;;;12.07;5.07;;;4.10;99.90;;;;;;5090261;28;20078;-74
2021/12/08 02:11:54;;;;;;;8.18;5.00;;;4.10;99.90;;;;;;5091179;28;20032;-74
2021/12/08 02:14:20;;;;;;;8.90;4.90;;;4.10;99.90;;;;;;5092830;28;20124;-74
2021/12/08 02:16:47;;;;;;;10.00;5.75;;;4.10;99.90;;;;;;5096628;28;20040;-74
2021/12/08 02:19:13;;;;;;;10.82;5.32;;;4.10;99.90;;;;;;5088655;28;20131;-74
2021/12/08 02:21:42;;;;;;;9.45;5.35;;;4.10;99.90;;;;;;5091654;28;20067;-74
2021/12/08 02:24:11;;;;;;;11.75;5.30;;;4.10;99.90;;;;;;5075164;28;20040;-74
2021/12/08 02:26:39;;;;;;;12.38;5.05;;;4.10;99.90;;;;;;5085875;28;20040;-74
2021/12/08 02:29:10;;;;;;;14.65;5.07;;;4.10;99.90;;;;;;5086383;28;20045;-74
2021/12/08 02:48:15;;;;;;;9.02;5.15;;;4.00;99.90;;;;;;5092265;28;20047;-74
2021/12/08 02:50:42;;;;;;;15.20;5.28;;;4.00;99.90;;;;;;5092873;28;20040;-74
2021/12/08 02:53:10;;;;;;;10.60;5.18;;;4.00;99.90;;;;;;5091870;28;20090;-74
2021/12/08 02:55:37;;;;;;;12.10;5.57;;;4.00;99.90;;;;;;5090420;28;20043;-74
2021/12/08 02:58:04;;;;;;;12.10;6.32;;;4.00;99.90;;;;;;5087439;28;20131;-74
2021/12/08 03:00:43;;;;;;;10.10;6.25;;;4.00;99.90;;;;;;5082302;28;20039;-73
2021/12/08 03:03:08;;;;;;;11.32;6.13;;;4.00;99.90;;;;;;5082379;28;20036;-74
2021/12/08 03:05:34;;;;;;;9.65;6.45;;;4.10;99.90;;;;;;5083686;28;20043;-74
2021/12/08 03:08:01;;;;;;;14.95;6.07;;;4.10;99.90;;;;;;5090336;28;20044;-73
2021/12/08 03:10:31;;;;;;;13.65;6.70;;;4.10;99.90;;;;;;5081138;28;20044;-74
2021/12/08 03:12:58;;;;;;;15.98;6.28;;;4.20;99.90;;;;;;5077166;28;20044;-74
2021/12/08 03:15:25;;;;;;;12.60;6.97;;;4.20;99.90;;;;;;5081613;28;20039;-74
2021/12/08 03:17:50;;;;;;;15.13;8.05;;;4.20;99.90;;;;;;5089644;28;20168;-73
2021/12/08 03:20:28;;;;;;;11.68;7.63;;;4.20;99.90;;;;;;5085807;28;20077;-74
2021/12/08 03:23:00;;;;;;;12.85;6.70;;;4.20;99.90;;;;;;5078400;28;20112;-73
2021/12/08 03:25:28;;;;;;;12.63;8.18;;;4.20;99.90;;;;;;5090618;28;20109;-74
2021/12/08 03:28:06;;;;;;;13.80;8.63;;;4.30;99.90;;;;;;5090664;28;20044;-74
2021/12/08 03:30:38;;;;;;;12.57;8.20;;;4.30;99.90;;;;;;5085590;28;20055;-74
2021/12/08 03:33:04;;;;;;;;;;;4.30;99.90;;;;;;5081925;28;20047;-74
2021/12/08 03:35:30;;;;;;;15.75;8.65;;;4.40;99.90;;;;;;5090737;28;19916;-74
2021/12/08 03:37:57;;;;;;;14.73;9.45;;;4.40;99.90;;;;;;5085630;28;20123;-74
2021/12/08 03:40:27;;;;;;;14.80;9.50;;;4.40;99.90;;;;;;5090445;28;20528;-74
2021/12/08 03:42:55;;;;;;;12.23;9.38;;;4.50;99.90;;;;;;5087054;28;20043;-75
2021/12/08 03:45:31;;;;;;;14.15;10.50;;;4.60;99.90;;;;;;5085272;28;20074;-75
2021/12/08 03:48:06;;;;;;;16.15;11.07;;;4.60;99.90;;;;;;5082766;28;20040;-75
2021/12/08 03:50:36;;;;;;;13.80;10.63;;;4.60;99.90;;;;;;5086844;28;20073;-75
2021/12/08 03:53:01;;;;;;;17.10;11.15;;;4.60;99.90;;;;;;5080932;28;20048;-75
2021/12/08 03:55:27;;;;;;;16.90;12.00;;;4.60;99.90;;;;;;5087895;28;20043;-75
2021/12/08 03:57:53;;;;;;;16.80;11.38;;;4.70;99.90;;;;;;5086474;28;20064;-75
2021/12/08 04:00:22;;;;;;;16.23;11.68;;;4.70;99.90;;;;;;5088100;28;20398;-75
2021/12/08 04:02:49;;;;;;;19.58;11.27;;;4.70;99.90;;;;;;5093244;28;20029;-75
2021/12/08 04:05:20;;;;;;;16.67;11.18;;;4.70;99.90;;;;;;5084720;28;20098;-75
2021/12/08 04:07:52;;;;;;;14.25;10.82;;;4.70;99.90;;;;;;5089112;28;20043;-75
2021/12/08 04:10:20;;;;;;;14.20;11.10;;;4.80;99.90;;;;;;5094041;28;20044;-75
2021/12/08 04:12:53;;;;;;;15.27;10.77;;;4.80;99.90;;;;;;5092098;28;20081;-75
2021/12/08 04:15:22;;;;;;;16.85;11.27;;;4.80;99.90;;;;;;5092279;28;20040;-75
2021/12/08 04:17:50;;;;;;;16.65;10.57;;;4.80;99.90;;;;;;5086146;28;20040;-75
2021/12/08 04:20:32;;;;;;;17.13;11.07;;;4.80;99.90;;;;;;5077911;28;20032;-75
2021/12/08 04:23:00;;;;;;;14.88;11.13;;;4.90;99.90;;;;;;5082858;28;20471;-75
2021/12/08 04:25:30;;;;;;;16.55;11.50;;;4.90;99.90;;;;;;5086967;28;20088;-74
2021/12/08 04:28:00;;;;;;;15.88;11.82;;;4.90;99.90;;;;;;5074254;28;20044;-74
2021/12/08 04:30:34;;;;;;;16.42;11.18;;;4.80;99.90;;;;;;5092343;28;20483;-74
2021/12/08 04:33:00;;;;;;;17.52;11.05;;;4.90;99.90;;;;;;5061862;28;20533;-74
2021/12/08 04:35:27;;;;;;;16.17;11.60;;;4.90;99.90;;;;;;5093745;28;20051;-74
2021/12/08 04:38:00;;;;;;;15.23;10.68;;;4.90;99.90;;;;;;5086610;28;20052;-74
2021/12/08 04:40:59;;;;;;;17.00;10.93;;;4.90;99.90;;;;;;5090993;28;20505;-74
2021/12/08 04:43:36;;;;;;;16.83;11.07;;;5.00;99.90;;;;;;5089967;28;20071;-74
2021/12/08 04:47:25;;;;;;;13.88;10.40;;;5.00;99.90;;;;;;5094651;28;20097;-74
2021/12/08 05:03:35;;;;;;;14.73;9.98;;;5.20;99.90;;;;;;5087766;28;20048;-74
2021/12/08 05:06:17;;;;;;;15.55;10.07;;;5.10;99.90;;;;;;5052267;28;20040;-74
2021/12/08 05:08:43;;;;;;;11.65;10.05;;;5.10;99.90;;;;;;5067825;28;20067;-74
2021/12/08 05:11:28;;;;;;;16.35;10.40;;;5.10;99.90;;;;;;5060696;28;20444;-74
2021/12/08 05:14:10;;;;;;;14.80;9.70;;;5.10;99.90;;;;;;5087258;28;20044;-74
2021/12/08 05:16:38;;;;;;;15.20;9.25;;;5.10;99.90;;;;;;5097223;28;20043;-74
2021/12/08 05:19:07;;;;;;;12.82;9.52;;;5.10;99.90;;;;;;5083519;28;20040;-74
2021/12/08 05:21:45;;;;;;;12.55;9.25;;;5.20;99.90;;;;;;5093758;28;20043;-74
2021/12/08 05:24:17;;;;;;;15.57;9.18;;;5.20;99.90;;;;;;5072331;28;20367;-74
2021/12/08 05:27:06;;;;;;;10.80;8.65;;;5.10;99.90;;;;;;5096966;28;20387;-74
2021/12/08 05:29:44;;;;;;;13.32;8.77;;;5.10;99.90;;;;;;5089365;28;20040;-74
2021/12/08 05:32:10;;;;;;;13.23;9.75;;;5.00;99.90;;;;;;5092417;28;20036;-74
2021/12/08 05:34:37;;;;;;;15.52;9.38;;;5.00;99.90;;;;;;5084225;28;20032;-74
2021/12/08 05:37:05;;;;;;;13.13;8.30;;;5.00;99.90;;;;;;5082901;28;20532;-74
2021/12/08 05:39:33;;;;;;;15.90;9.82;;;5.00;99.90;;;;;;5090950;28;20398;-74
2021/12/08 05:42:03;;;;;;;11.57;9.02;;;5.00;99.90;;;;;;5091724;28;20044;-74
2021/12/08 05:44:30;;;;;;;13.73;8.95;;;5.00;99.90;;;;;;5089828;28;20049;-74
2021/12/08 05:47:00;;;;;;;11.27;8.15;;;5.00;99.90;;;;;;5075816;28;20500;-74
2021/12/08 05:49:26;;;;;;;12.02;7.90;;;5.00;99.90;;;;;;5089575;28;20622;-74
2021/12/08 05:51:54;;;;;;;12.60;8.27;;;5.00;99.90;;;;;;5087750;28;20125;-74
2021/12/08 05:54:30;;;;;;;12.55;8.05;;;4.90;99.90;;;;;;5091591;28;20409;-74
2021/12/08 05:56:57;;;;;;;11.82;8.45;;;4.90;99.90;;;;;;5079842;28;20201;-74
2021/12/08 05:59:24;;;;;;;12.95;7.93;;;4.90;99.90;;;;;;5090034;28;20119;-74
2021/12/08 06:01:56;;;;;;;12.75;7.38;;;4.90;99.90;;;;;;5079728;28;20037;-74
2021/12/08 06:04:24;;;;;;;8.82;7.25;;;4.80;99.90;;;;;;5088394;28;20428;-74
2021/12/08 06:06:50;;;;;;;10.57;7.20;;;4.80;99.90;;;;;;5089520;28;20482;-74
2021/12/08 06:09:18;;;;;;;9.45;7.50;;;4.80;99.90;;;;;;5076705;28;20098;-74
2021/12/08 06:11:45;;;;;;;15.35;7.28;;;4.70;99.90;;;;;;5081155;28;20079;-74
2021/12/08 06:14:11;;;;;;;12.75;7.28;;;4.70;99.90;;;;;;5082436;28;20044;-75
2021/12/08 06:16:40;;;;;;;14.05;8.00;;;4.70;99.90;;;;;;5086415;28;20427;-75
2021/12/08 06:19:08;;;;;;;11.95;7.25;;;4.70;99.90;;;;;;5090077;28;20036;-75
2021/12/08 06:21:35;;;;;;;12.40;7.68;;;4.70;99.90;;;;;;5078830;28;20393;-75
2021/12/08 06:24:03;;;;;;;11.70;6.85;;;4.70;99.90;;;;;;5082555;28;20855;-75
2021/12/08 06:26:30;;;;;;;10.70;7.25;;;4.70;99.90;;;;;;5089561;28;20475;-75
2021/12/08 06:28:56;;;;;;;12.27;6.90;;;4.70;99.90;;;;;;5086424;28;20477;-75
2021/12/08 06:31:25;;;;;;;14.32;6.70;;;4.70;99.90;;;;;;5091543;28;20397;-74
2021/12/08 06:33:51;;;;;;;15.00;7.07;;;4.80;99.90;;;;;;5080212;28;20032;-74
2021/12/08 06:36:29;;;;;;;12.00;6.63;;;4.80;99.90;;;;;;5080515;28;20032;-74
2021/12/08 06:38:57;;;;;;;10.18;6.35;;;4.90;99.90;;;;;;5084370;28;20047;-74
2021/12/08 06:41:33;;;;;;;12.10;6.07;;;4.90;99.90;;;;;;5079416;28;20479;-74
2021/12/08 06:44:11;;;;;;;9.55;5.90;;;4.90;99.90;;;;;;5077543;28;20119;-74
2021/12/08 06:46:38;;;;;;;10.10;5.70;;;4.90;99.90;;;;;;5088437;28;20384;-73
2021/12/08 06:49:06;;;;;;;7.03;5.47;;;4.90;99.90;;;;;;5082019;28;20511;-74
2021/12/08 06:51:43;;;;;;;8.88;5.30;;;4.90;99.90;;;;;;5090128;28;20506;-74
2021/12/08 06:54:37;;;;;;;8.82;5.60;;;4.90;99.90;;;;;;5084367;28;20526;-74
2021/12/08 06:57:09;;;;;;;9.90;5.40;;;4.90;99.90;;;;;;5059364;28;20042;-75
2021/12/08 06:59:51;;;;;;;9.95;5.35;;;4.80;99.90;;;;;;5092244;28;20467;-74
2021/12/08 07:02:33;;;;;;;11.38;4.90;;;4.80;99.90;;;;;;5082240;28;20102;-75
2021/12/08 07:07:31;;;;;;;8.10;4.45;;;4.80;99.90;;;;;;5089373;28;20083;-75
2021/12/08 07:10:27;;;;;;;9.18;4.40;;;4.80;99.90;;;;;;5074325;28;20051;-75
2021/12/08 07:13:09;;;;;;;11.95;4.40;;;4.80;99.90;;;;;;5061158;28;20071;-74
2021/12/08 07:15:45;;;;;;;11.68;4.18;;;4.80;99.90;;;;;;5081637;28;20052;-76
2021/12/08 07:18:25;;;;;;;9.02;3.80;;;4.80;99.90;;;;;;5077415;28;20371;-75
2021/12/08 07:20:56;;;;;;;9.45;4.25;;;4.80;99.90;;;;;;5079128;28;20064;-76
2021/12/08 07:23:27;;;;;;;10.95;4.82;;;4.80;99.90;;;;;;5078952;28;20413;-76
2021/12/08 07:25:56;;;;;;;8.80;4.20;;;4.80;99.90;;;;;;5084589;28;20398;-75
2021/12/08 07:28:24;;;;;;;13.38;5.00;;;4.80;99.90;;;;;;5081295;28;20626;-75
2021/12/08 07:31:00;;;;;;;12.45;5.10;;;4.80;99.90;;;;;;5080574;28;20050;-75
2021/12/08 07:33:27;;;;;;;8.32;4.13;;;4.80;99.90;;;;;;5088732;28;20398;-75
2021/12/08 07:35:55;;;;;;;12.35;4.60;;;4.80;99.90;;;;;;5084665;28;20048;-74
2021/12/08 07:38:25;;;;;;;11.50;4.22;;;4.90;99.90;;;;;;5087378;28;20043;-76
2021/12/08 07:41:02;;;;;;;11.20;4.20;;;4.90;99.90;;;;;;5086315;28;20750;-75
2021/12/08 07:43:29;;;;;;;11.30;4.20;;;4.90;99.90;;;;;;5091303;28;20553;-75
2021/12/08 07:46:03;;;;;;;11.88;3.85;;;4.90;99.90;;;;;;5055459;28;20262;-75
2021/12/08 07:48:35;;;;;;;11.30;3.45;;;4.90;99.90;;;;;;5087825;28;20421;-75
2021/12/08 07:51:06;;;;;;;7.80;3.30;;;4.90;99.90;;;;;;5086406;28;20482;-75
2021/12/08 07:53:33;;;;;;;8.77;3.13;;;4.90;99.90;;;;;;5087359;28;20533;-75
2021/12/08 07:56:04;;;;;;;11.52;3.83;;;4.90;99.90;;;;;;5084399;28;20581;-75
2021/12/08 07:58:32;;;;;;;10.90;3.13;;;4.90;99.90;;;;;;5085919;28;20036;-74
2021/12/08 08:01:18;;;;;;;7.15;3.22;;;4.90;99.90;;;;;;5084790;28;20708;-74
2021/12/08 08:03:45;;;;;;;10.85;3.10;;;4.90;99.90;;;;;;5085522;28;20517;-75
2021/12/08 08:06:21;;;;;;;10.25;3.25;;;4.90;99.90;;;;;;5088832;28;20414;-75
2021/12/08 08:08:47;;;;;;;10.80;3.20;;;4.90;99.90;;;;;;5083770;28;20069;-75
2021/12/08 08:11:25;;;;;;;7.40;3.00;;;4.90;99.90;;;;;;5080034;28;20047;-75
2021/12/08 08:13:52;;;;;;;11.80;3.72;;;4.90;99.90;;;;;;5085670;28;20044;-75
2021/12/08 08:16:22;;;;;;;13.48;3.17;;;4.90;99.90;;;;;;5083210;28;20036;-75
2021/12/08 08:18:56;;;;;;;9.23;2.80;;;4.90;99.90;;;;;;5077513;28;20044;-75
2021/12/08 08:21:24;;;;;;;11.48;2.70;;;4.90;99.90;;;;;;5084209;28;20056;-75
2021/12/08 08:23:50;;;;;;;10.32;3.40;;;4.90;99.90;;;;;;5078439;28;20036;-75
2021/12/08 08:26:17;;;;;;;11.57;2.90;;;4.90;99.90;;;;;;5089031;28;20512;-75
2021/12/08 08:28:48;;;;;;;7.15;3.03;;;4.90;99.90;;;;;;5092509;28;20409;-75
2021/12/08 08:31:25;;;;;;;9.13;2.95;;;4.90;99.90;;;;;;5092506;28;20044;-75
2021/12/08 08:33:51;;;;;;;7.95;2.80;;;5.00;99.90;;;;;;5080667;28;20495;-75
2021/12/08 08:36:23;;;;;;;8.98;2.60;;;5.00;99.90;;;;;;5079980;28;20048;-75
2021/12/08 08:38:57;;;;;;;8.38;2.17;;;5.10;99.90;;;;;;5078807;28;20506;-75
2021/12/08 08:41:26;;;;;;;11.30;2.47;;;5.20;99.90;;;;;;5087295;28;20493;-74
2021/12/08 08:43:56;;;;;;;11.25;2.25;;;5.20;99.90;;;;;;5087531;28;20047;-74
2021/12/08 08:46:33;;;;;;;12.95;2.80;;;5.20;99.90;;;;;;5092043;28;20059;-74
2021/12/08 08:49:05;;;;;;;7.85;2.50;;;5.30;99.90;;;;;;5085533;28;20031;-74
2021/12/08 08:51:38;;;;;;;9.40;2.90;;;5.30;99.90;;;;;;5091473;28;20104;-74
2021/12/08 08:54:10;;;;;;;10.27;2.50;;;5.40;99.90;;;;;;5092346;28;20047;-74
2021/12/08 08:56:39;;;;;;;11.15;2.72;;;5.40;99.90;;;;;;5084521;28;20067;-74
2021/12/08 08:59:12;;;;;;;9.50;2.75;;;5.50;99.90;;;;;;5091292;28;20118;-74
2021/12/08 09:01:42;;;;;;;8.23;2.53;;;5.50;99.90;;;;;;5092135;28;20371;-74
2021/12/08 09:04:20;;;;;;;9.85;2.67;;;5.60;99.90;;;;;;5088866;28;20059;-74
2021/12/08 09:06:51;;;;;;;8.27;2.35;;;5.60;99.90;;;;;;5087820;28;20036;-74
2021/12/08 09:09:22;;;;;;;11.88;2.95;;;5.60;99.90;;;;;;5087700;28;20024;-75
2021/12/08 09:12:17;;;;;;;12.13;2.90;;;5.60;99.90;;;;;;5083544;28;20401;-75
2021/12/08 09:14:43;;;;;;;14.32;3.00;;;5.60;99.90;;;;;;5077469;28;20114;-74
2021/12/08 09:17:14;;;;;;;10.50;2.88;;;5.50;99.90;;;;;;5079839;28;20086;-74
2021/12/08 09:19:57;;;;;;;9.98;2.75;;;5.50;99.90;;;;;;5085945;28;22104;-74
2021/12/08 09:22:31;;;;;;;11.27;2.67;;;5.50;99.90;;;;;;5081208;28;20390;-74
2021/12/08 09:25:04;;;;;;;13.70;2.60;;;5.50;99.90;;;;;;5086255;28;20379;-74
2021/12/08 09:27:44;;;;;;;12.80;2.78;;;5.60;99.90;;;;;;5082877;28;20084;-74
2021/12/08 09:30:13;;;;;;;12.27;2.47;;;5.60;99.90;;;;;;5065917;28;20448;-74
2021/12/08 09:33:07;;;;;;;8.13;2.47;;;5.60;99.90;;;;;;5082935;28;20043;-74
2021/12/08 09:35:54;;;;;;;9.27;2.50;;;5.60;99.90;;;;;;5087322;28;20044;-74
2021/12/08 09:38:46;;;;;;;11.00;2.75;;;5.70;99.90;;;;;;5065922;28;20371;-74
2021/12/08 09:41:26;;;;;;;12.38;3.33;;;5.60;99.90;;;;;;5081291;28;20453;-75
2021/12/08 09:44:01;;;;;;;10.73;2.83;;;5.60;99.90;;;;;;5083933;28;20394;-72
2021/12/08 09:46:33;;;;;;;11.75;3.33;;;5.60;99.90;;;;;;5085127;28;20394;-75
2021/12/08 09:48:59;;;;;;;11.77;2.77;;;5.70;99.90;;;;;;5083086;28;20036;-76
2021/12/08 09:51:26;;;;;;;14.02;3.28;;;5.70;99.90;;;;;;5085893;28;20044;-74
2021/12/08 09:53:52;;;;;;;12.07;3.22;;;5.80;99.90;;;;;;5084850;28;20050;-74
2021/12/08 09:56:20;;;;;;;13.68;3.25;;;5.80;99.90;;;;;;5090167;28;20490;-74
2021/12/08 09:58:46;;;;;;;10.43;2.65;;;5.90;99.90;;;;;;5083248;28;20062;-74
2021/12/08 10:01:18;;;;;;;8.20;2.70;;;5.90;99.90;;;;;;5082636;28;20097;-73
2021/12/08 10:03:45;;;;;;;9.35;2.53;;;6.00;99.90;;;;;;5087228;28;20031;-74
2021/12/08 10:06:12;;;;;;;15.52;2.85;;;6.00;99.90;;;;;;5089427;28;20036;-74
2021/12/08 10:08:41;;;;;;;13.55;3.13;;;6.10;99.90;;;;;;5085697;28;20036;-74
2021/12/08 10:11:08;;;;;;;7.85;2.72;;;6.10;99.90;;;;;;5085068;28;20040;-74
2021/12/08 10:13:34;;;;;;;14.13;3.22;;;6.10;99.90;;;;;;5088817;28;20122;-74
2021/12/08 10:15:59;;;;;;;12.77;3.58;;;6.20;99.90;;;;;;5089127;28;20115;-74
2021/12/08 10:18:25;;;;;;;9.82;2.95;;;6.20;99.90;;;;;;5086975;28;20462;-74
2021/12/08 10:20:53;;;;;;;11.93;2.85;;;6.30;99.90;;;;;;5089327;28;20490;-74
2021/12/08 10:23:20;;;;;;;6.63;2.40;;;6.30;99.90;;;;;;5082528;28;20036;-74
2021/12/08 10:25:56;;;;;;;10.95;2.97;;;6.40;99.90;;;;;;5088684;28;20052;-74
2021/12/08 10:28:44;;;;;;;11.45;2.97;;;6.40;99.90;;;;;;5080697;28;20052;-74
2021/12/08 10:31:26;;;;;;;9.77;2.70;;;6.40;99.90;;;;;;5085748;28;20035;-74
2021/12/08 10:34:04;;;;;;;11.65;3.17;;;6.40;99.90;;;;;;5084146;28;20039;-74
2021/12/08 10:36:46;;;;;;;20.30;3.60;;;6.30;99.90;;;;;;5087977;28;20032;-74
2021/12/08 10:39:29;;;;;;;14.05;3.38;;;6.40;99.90;;;;;;5081298;28;20036;-74
2021/12/08 10:42:34;;;;;;;10.02;2.75;;;6.40;99.90;;;;;;5089806;28;20240;-74
2021/12/08 10:45:12;;;;;;;8.75;2.80;;;6.30;99.90;;;;;;5023929;28;20442;-74
2021/12/08 10:47:47;;;;;;;8.80;2.78;;;6.40;99.90;;;;;;5027222;28;20051;-74
2021/12/08 10:56:06;;;;;;;9.20;2.45;;;6.40;99.90;;;;;;5086873;28;19969;-74
2021/12/08 10:58:35;;;;;;;11.68;2.60;;;6.50;99.90;;;;;;5087631;28;20058;-74
2021/12/08 11:01:13;;;;;;;8.95;2.45;;;6.40;99.90;;;;;;5082144;28;20047;-74
2021/12/08 11:03:39;;;;;;;10.15;2.75;;;6.50;99.90;;;;;;5072805;28;20115;-74
2021/12/08 11:06:06;;;;;;;7.88;2.50;;;6.50;99.90;;;;;;5077617;28;20065;-74
2021/12/08 11:08:37;;;;;;;10.05;2.80;;;6.60;99.90;;;;;;5095121;28;20039;-73
2021/12/08 11:11:03;;;;;;;8.75;2.92;;;6.70;99.90;;;;;;5073130;28;20278;-73
2021/12/08 11:13:36;;;;;;;8.82;2.55;;;6.70;99.90;;;;;;5093090;28;20054;-74
2021/12/08 11:16:08;;;;;;;9.55;2.63;;;6.70;99.90;;;;;;5058034;28;20131;-74
2021/12/08 11:18:39;;;;;;;7.57;2.72;;;6.60;99.90;;;;;;5058301;28;20119;-74
2021/12/08 11:21:24;;;;;;;11.00;2.67;;;6.70;99.90;;;;;;5090766;28;20044;-75
2021/12/08 11:28:33;;;;;;;10.48;2.85;;;6.60;99.90;;;;;;5036921;28;20060;-75
2021/12/08 11:31:54;;;;;;;12.55;2.80;;;6.60;99.90;;;;;;5042914;28;20080;-75
2021/12/08 11:34:29;;;;;;;13.20;4.07;;;6.60;99.90;;;;;;5032413;28;20432;-75
2021/12/08 11:37:32;;;;;;;12.85;3.78;;;6.70;99.90;;;;;;5062189;28;20089;-75
2021/12/08 11:40:03;;;;;;;10.55;3.17;;;6.60;99.90;;;;;;5061429;28;20040;-74
2021/12/08 11:42:37;;;;;;;16.80;3.50;;;6.60;99.90;;;;;;5063680;28;20048;-75
2021/12/08 11:45:29;;;;;;;10.00;3.28;;;6.60;99.90;;;;;;5083095;28;20036;-74
2021/12/08 11:48:32;;;;;;;6.03;2.75;;;6.50;99.90;;;;;;5089567;28;20040;-74
2021/12/08 11:51:26;;;;;;;9.45;2.65;;;6.50;99.90;;;;;;5066120;28;20036;-74
2021/12/08 11:54:05;;;;;;;13.33;3.40;;;6.50;99.90;;;;;;5076474;28;20071;-74
2021/12/08 11:56:50;;;;;;;10.57;2.92;;;6.40;99.90;;;;;;5046279;28;20115;-74
2021/12/08 11:59:28;;;;;;;11.77;2.95;;;6.40;99.90;;;;;;5058735;28;20127;-75
2021/12/08 12:03:03;;;;;;;9.45;3.08;;;6.40;99.90;;;;;;5108621;28;20039;-75
2021/12/08 12:05:51;;;;;;;9.95;2.65;;;6.30;99.90;;;;;;5078431;28;20532;-75
2021/12/08 12:09:09;;;;;;;8.07;3.00;;;6.30;99.90;;;;;;5061177;28;20100;-75
2021/12/08 12:12:37;;;;;;;10.98;2.72;;;6.30;99.90;;;;;;5079309;28;20040;-74
2021/12/08 12:15:52;;;;;;;11.88;2.78;;;6.30;99.90;;;;;;5059048;28;20072;-75
2021/12/08 12:19:12;;;;;;;9.15;3.42;;;6.20;99.90;;;;;;5098350;28;20067;-74
2021/12/08 12:22:52;;;;;;;10.70;2.67;;;6.20;99.90;;;;;;5097483;28;20069;-75
2021/12/08 12:26:09;;;;;;;12.38;3.13;;;6.20;99.90;;;;;;5078116;28;20048;-74
2021/12/08 12:29:16;;;;;;;8.68;2.90;;;6.20;99.90;;;;;;5104292;28;20048;-74
2021/12/08 12:32:43;;;;;;;8.00;2.70;;;6.20;99.90;;;;;;5083063;28;20093;-75
2021/12/08 12:35:16;;;;;;;8.27;2.83;;;6.20;99.90;;;;;;5084351;28;20130;-74
2021/12/08 12:37:43;;;;;;;10.93;3.15;;;6.20;99.90;;;;;;5088756;28;20036;-75
2021/12/08 12:40:13;;;;;;;9.75;2.70;;;6.20;99.90;;;;;;5076912;28;20089;-74
2021/12/08 12:42:55;;;;;;;10.48;2.83;;;6.20;99.90;;;;;;5088280;28;20048;-74
2021/12/08 12:45:24;;;;;;;12.35;2.97;;;6.20;99.90;;;;;;5086330;28;20040;-74
2021/12/08 12:48:19;;;;;;;8.55;3.00;;;6.20;99.90;;;;;;5090839;28;20093;-74
2021/12/08 12:51:06;;;;;;;7.85;2.63;;;6.20;99.90;;;;;;5079421;28;20191;-74
2021/12/08 12:53:56;;;;;;;15.57;3.00;;;6.20;99.90;;;;;;5094210;28;20043;-75
2021/12/08 12:56:47;;;;;;;8.02;2.63;;;6.20;99.90;;;;;;5084090;28;20036;-74
2021/12/08 12:59:17;;;;;;;9.23;2.30;;;6.30;99.90;;;;;;5080140;28;20040;-75
2021/12/08 13:01:48;;;;;;;9.40;3.05;;;6.30;99.90;;;;;;5085108;28;20052;-75
2021/12/08 13:04:25;;;;;;;11.95;2.80;;;6.40;99.90;;;;;;5083482;28;20497;-74
2021/12/08 13:07:00;;;;;;;9.15;2.38;;;6.40;99.90;;;;;;5088963;28;20040;-74
2021/12/08 13:09:46;;;;;;;9.93;2.60;;;6.40;99.90;;;;;;5084873;28;20101;-74
2021/12/08 13:12:24;;;;;;;8.68;2.70;;;6.50;99.90;;;;;;5080238;28;20050;-75
2021/12/08 13:15:07;;;;;;;11.40;2.78;;;6.40;99.90;;;;;;5089052;28;20059;-75
2021/12/08 13:17:34;;;;;;;11.82;2.72;;;6.40;99.90;;;;;;5086289;28;20428;-75
2021/12/08 13:20:08;;;;;;;13.43;2.80;;;6.40;99.90;;;;;;5085291;28;20150;-75
2021/12/08 13:22:47;;;;;;;7.05;2.70;;;6.40;99.90;;;;;;5076359;28;20085;-75
2021/12/08 13:28:14;;;;;;;8.98;3.00;;;6.40;99.90;;;;;;5077764;28;20040;-75
2021/12/08 13:31:02;;;;;;;6.97;2.40;;;6.70;99.90;;;;;;5084149;28;20033;-75
2021/12/08 13:33:32;;;;;;;7.85;2.70;;;6.80;99.90;;;;;;5083863;28;20039;-75
2021/12/08 13:36:18;;;;;;;12.05;2.80;;;6.80;99.90;;;;;;5078725;28;20128;-74
2021/12/08 13:38:44;;;;;;;12.95;2.78;;;6.70;99.90;;;;;;5085611;28;20097;-74
2021/12/08 13:41:15;;;;;;;5.97;2.20;;;6.70;99.90;;;;;;5085957;28;20035;-73
2021/12/08 13:43:44;;;;;;;10.85;2.80;;;6.60;99.90;;;;;;5086157;28;20044;-74
2021/12/08 13:46:31;;;;;;;12.65;3.67;;;6.60;99.90;;;;;;5083144;28;20709;-73
2021/12/08 13:49:19;;;;;;;9.77;2.40;;;6.60;99.90;;;;;;5038637;28;20119;-73
2021/12/08 13:52:07;;;;;;;9.95;2.63;;;6.60;99.90;;;;;;5089635;28;20046;-73
2021/12/08 13:54:41;;;;;;;7.30;2.63;;;6.50;99.90;;;;;;5085949;28;20172;-73
2021/12/08 13:57:42;;;;;;;6.60;2.25;;;6.50;99.90;;;;;;5085703;28;20094;-73
2021/12/08 14:00:17;;;;;;;9.35;2.40;;;6.50;99.90;;;;;;5087029;28;20032;-74
2021/12/08 14:02:45;;;;;;;7.55;2.88;;;6.50;99.90;;;;;;5081778;28;20040;-74
2021/12/08 14:05:14;;;;;;;9.13;2.17;;;6.40;99.90;;;;;;5091649;28;20040;-74
2021/12/08 14:07:43;;;;;;;10.18;2.50;;;6.40;99.90;;;;;;5088208;28;20087;-73
2021/12/08 14:10:14;;;;;;;8.10;2.28;;;6.40;99.90;;;;;;5087841;28;20040;-73
2021/12/08 14:12:44;;;;;;;9.23;2.78;;;6.40;99.90;;;;;;5081602;28;20052;-74
2021/12/08 14:15:15;;;;;;;9.60;2.47;;;6.40;99.90;;;;;;5090164;28;20054;-74
2021/12/08 14:17:41;;;;;;;7.57;2.10;;;6.30;99.90;;;;;;5087873;28;20083;-74